KCHO

Charlottesville-Albemarle Airport

Charlottesville, Virginia, USA
METAR KCHO 171453Z VRB06KT 10SM CLR 09/00 A2993 RMK AO2 SLP136 T00940000 50007
Observed Flight Rules
Dec-17 @ 14:53 UTC (49 minutes ago) Visual Flight Rules
Wind Visibility Clouds
Variable at 6 knots 10 miles
  • Clear skies
Temperatures Readings
Current 9°C / 48°F
Dewpoint 0°C / 32°F
Humidity 54%
Altimeter 29.93" Hg
Pressure 1013.6 hPa
Elevation 192
METAR KCHO 171453Z VRB06KT 10SM CLR 09/00 A2993 RMK AO2 SLP136 T00940000 50007
Observed Flight Rules
Dec-17 @ 14:53 UTC
(49 minutes ago)
VFR
Wind Visibility
Variable at 6 knots 10 miles
Clouds
  • Clear skies
Temperature Dewpoint
9°C / 48°F 0°C / 32°F
Humidity Altimeter Pressure
54% 29.93" Hg 1013.6 hPa